Time;durP1;ratioP1;P1;durP2;ratioP2;P2;SDS_P1;SDS_P2;PMS_P1;PMS_P2;Temp;Humidity;BMP_temperature;BMP_pressure;BME280_temperature;BME280_humidity;BME280_pressure;Samples;Min_cycle;Max_cycle;Signal;HPM_P1;HPM_P2
2020/12/21 00:00:43;;;;;;;16.37;14.47;;;;;;;6.88;61.19;103352.53;1740113;82;21517;-48
2020/12/21 00:03:13;;;;;;;17.75;14.07;;;;;;;6.88;61.25;103355.12;1740549;82;21140;-47
2020/12/21 00:05:42;;;;;;;15.45;12.95;;;;;;;6.88;61.14;103352.53;1739878;82;21149;-47
2020/12/21 00:08:10;;;;;;;15.43;12.73;;;;;;;6.88;61.19;103349.94;1740391;82;21141;-47
2020/12/21 00:10:40;;;;;;;17.67;13.83;;;;;;;6.91;61.31;103348.33;1741089;82;21145;-47
2020/12/21 00:13:08;;;;;;;17.05;13.60;;;;;;;6.97;61.39;103352.42;1741155;82;21149;-47
2020/12/21 00:15:38;;;;;;;15.85;13.55;;;;;;;7.02;61.38;103347.41;1739886;82;21132;-47
2020/12/21 00:18:06;;;;;;;17.65;14.38;;;;;;;7.06;61.41;103345.38;1738150;82;21173;-47
2020/12/21 00:20:34;;;;;;;17.62;13.25;;;;;;;7.08;61.45;103345.02;1728356;82;21335;-48
2020/12/21 00:23:02;;;;;;;15.75;13.30;;;;;;;7.11;61.22;103342.55;1744234;80;21172;-47
2020/12/21 00:25:31;;;;;;;18.80;14.35;;;;;;;7.11;61.22;103341.25;1740501;82;21298;-47
2020/12/21 00:28:00;;;;;;;16.20;12.73;;;;;;;7.12;61.38;103343.00;1734218;80;21152;-47
2020/12/21 00:30:29;;;;;;;15.85;13.20;;;;;;;7.13;61.50;103337.00;1738439;82;21221;-47
2020/12/21 00:32:58;;;;;;;16.73;12.82;;;;;;;7.16;61.54;103339.67;1737923;82;21183;-47
2020/12/21 00:35:27;;;;;;;15.83;13.18;;;;;;;7.18;61.48;103335.43;1739659;82;21297;-47
2020/12/21 00:37:55;;;;;;;16.12;13.28;;;;;;;7.21;61.37;103338.13;1741319;82;21105;-46
2020/12/21 00:40:23;;;;;;;15.43;12.93;;;;;;;7.23;61.37;103335.18;1741356;82;21148;-47
2020/12/21 00:42:51;;;;;;;14.50;12.68;;;;;;;7.22;61.31;103335.59;1739854;82;21292;-46
2020/12/21 00:45:19;;;;;;;16.32;13.22;;;;;;;7.20;61.24;103336.36;1738871;82;21294;-46
2020/12/21 00:47:47;;;;;;;16.48;13.43;;;;;;;7.19;61.17;103332.03;1740767;82;21196;-47
2020/12/21 00:50:15;;;;;;;14.93;12.20;;;;;;;7.16;61.02;103331.91;1737324;82;21188;-47
2020/12/21 00:52:44;;;;;;;15.28;12.73;;;;;;;7.15;61.06;103330.17;1736049;82;21156;-46
2020/12/21 00:55:12;;;;;;;16.90;12.93;;;;;;;7.14;61.09;103334.86;1729992;81;21294;-46
2020/12/21 00:57:40;;;;;;;15.30;12.60;;;;;;;7.14;61.20;103328.39;1724465;82;21302;-46
2020/12/21 01:00:08;;;;;;;14.50;12.00;;;;;;;7.13;61.29;103331.83;1724039;82;21150;-46
2020/12/21 01:02:38;;;;;;;14.95;11.90;;;;;;;7.10;61.51;103322.64;1726096;82;21157;-47
2020/12/21 01:05:06;;;;;;;15.30;12.37;;;;;;;7.09;61.50;103320.47;1704747;82;21286;-46
2020/12/21 01:07:34;;;;;;;14.78;12.10;;;;;;;7.05;61.47;103324.19;1719007;82;21121;-46
2020/12/21 01:10:03;;;;;;;15.95;12.05;;;;;;;7.00;61.66;103324.47;1726575;82;21294;-46
2020/12/21 01:12:31;;;;;;;15.88;12.70;;;;;;;6.98;61.92;103323.53;1723505;82;21177;-47
2020/12/21 01:15:01;;;;;;;14.25;11.75;;;;;;;6.99;61.97;103316.22;1718430;82;21343;-46
2020/12/21 01:17:32;;;;;;;15.93;11.85;;;;;;;7.01;62.08;103323.62;1724569;82;21181;-47
2020/12/21 01:20:01;;;;;;;14.93;12.45;;;;;;;7.04;62.12;103319.86;1724955;82;21188;-47
2020/12/21 01:22:30;;;;;;;14.73;12.35;;;;;;;7.06;62.13;103327.26;1721178;82;21192;-47
2020/12/21 01:24:59;;;;;;;15.85;12.28;;;;;;;7.09;62.29;103320.47;1727406;82;21133;-45
2020/12/21 01:27:27;;;;;;;18.48;12.60;;;;;;;7.10;62.21;103318.77;1726806;82;21213;-45
2020/12/21 01:29:56;;;;;;;14.60;12.37;;;;;;;7.10;62.17;103320.05;1724964;82;22029;-46
2020/12/21 01:32:24;;;;;;;14.45;11.90;;;;;;;7.06;62.34;103311.73;1726146;82;21169;-47
2020/12/21 01:34:52;;;;;;;13.85;11.80;;;;;;;7.04;62.48;103312.09;1726941;82;21149;-46
2020/12/21 01:37:20;;;;;;;13.50;11.50;;;;;;;7.05;62.50;103312.54;1727445;82;21283;-46
2020/12/21 01:39:49;;;;;;;13.35;11.68;;;;;;;7.05;62.50;103315.13;1727447;82;21165;-47
2020/12/21 01:42:17;;;;;;;14.05;11.78;;;;;;;7.04;62.52;103305.63;1725794;82;21172;-46
2020/12/21 01:44:47;;;;;;;14.40;12.37;;;;;;;7.03;62.70;103307.72;1724556;82;21113;-46
2020/12/21 01:47:19;;;;;;;14.53;12.28;;;;;;;7.00;62.90;103310.23;1724436;82;21141;-47
2020/12/21 01:49:47;;;;;;;15.93;10.95;;;;;;;7.00;63.16;103308.94;1724078;82;21153;-47
2020/12/21 01:52:17;;;;;;;15.05;12.05;;;;;;;6.99;63.33;103305.87;1724708;81;21173;-47
2020/12/21 01:54:49;;;;;;;14.15;11.90;;;;;;;7.00;63.42;103303.76;1726322;82;21176;-47
2020/12/21 01:57:17;;;;;;;15.98;12.45;;;;;;;7.01;63.49;103306.80;1744805;82;21148;-47
2020/12/21 01:59:45;;;;;;;15.70;12.73;;;;;;;6.88;64.02;103305.94;1735632;82;21153;-47
2020/12/21 02:02:13;;;;;;;17.67;13.32;;;;;;;6.76;64.69;103303.80;1740681;82;21179;-47
2020/12/21 02:04:43;;;;;;;15.90;13.90;;;;;;;6.77;64.84;103304.69;1742250;82;21559;-46
2020/12/21 02:07:16;;;;;;;13.72;11.70;;;;;;;6.78;64.92;103299.99;1738670;82;21310;-47
2020/12/21 02:09:44;;;;;;;14.07;11.70;;;;;;;6.82;65.00;103300.56;1739160;82;21157;-46
2020/12/21 02:12:12;;;;;;;14.55;12.30;;;;;;;6.92;64.69;103298.74;1739193;82;21557;-47
2020/12/21 02:14:40;;;;;;;17.10;12.63;;;;;;;6.89;64.82;103296.03;1733998;82;21172;-47
2020/12/21 02:17:08;;;;;;;15.90;12.70;;;;;;;7.10;64.15;103291.58;1735832;82;21172;-46
2020/12/21 02:19:37;;;;;;;16.90;12.53;;;;;;;7.13;63.85;103287.81;1736228;82;21581;-46
2020/12/21 02:22:05;;;;;;;16.10;13.72;;;;;;;6.95;64.37;103285.48;1738960;82;21156;-46
2020/12/21 02:24:33;;;;;;;14.70;12.13;;;;;;;6.96;64.44;103287.66;1739863;82;21600;-47
2020/12/21 02:27:01;;;;;;;16.95;12.70;;;;;;;6.95;64.56;103287.18;1740429;82;21318;-47
2020/12/21 02:29:29;;;;;;;17.55;12.98;;;;;;;7.05;64.38;103282.77;1741186;82;21141;-46
2020/12/21 02:31:59;;;;;;;15.03;12.43;;;;;;;7.18;63.98;103286.23;1741216;82;21164;-47
2020/12/21 02:34:27;;;;;;;16.25;12.82;;;;;;;7.23;63.84;103289.86;1739676;82;21144;-47
2020/12/21 02:36:56;;;;;;;16.97;12.95;;;;;;;7.29;63.58;103291.34;1738429;82;21157;-47
2020/12/21 02:39:24;;;;;;;18.70;14.55;;;;;;;7.29;63.57;103287.47;1738059;82;21282;-47
2020/12/21 02:41:52;;;;;;;16.27;12.58;;;;;;;7.29;63.67;103281.84;1738050;80;21306;-47
2020/12/21 02:44:21;;;;;;;16.87;13.03;;;;;;;7.29;63.82;103287.47;1737808;82;21160;-47
2020/12/21 02:46:49;;;;;;;16.77;13.08;;;;;;;7.29;63.90;103283.58;1738559;82;21738;-48
2020/12/21 02:49:17;;;;;;;16.40;13.80;;;;;;;7.31;63.92;103284.10;1736073;82;21180;-47
2020/12/21 02:51:53;;;;;;;19.15;13.90;;;;;;;7.32;63.93;103283.66;1735625;82;21314;-45
2020/12/21 02:54:20;;;;;;;18.10;13.65;;;;;;;7.32;64.08;103287.55;1730310;82;21180;-47
2020/12/21 02:56:53;;;;;;;20.43;15.03;;;;;;;7.32;64.24;103284.95;1724908;81;21619;-47
2020/12/21 02:59:21;;;;;;;19.98;15.13;;;;;;;7.30;64.43;103290.09;1726822;82;21177;-47
2020/12/21 03:01:49;;;;;;;19.00;14.70;;;;;;;7.28;64.87;103288.28;1724560;82;21299;-47
2020/12/21 03:04:17;;;;;;;19.87;13.58;;;;;;;7.22;65.39;103288.09;1724564;82;21184;-47
2020/12/21 03:06:46;;;;;;;22.05;15.60;;;;;;;7.14;65.80;103285.67;1724243;82;21153;-48
2020/12/21 03:09:14;;;;;;;19.23;14.50;;;;;;;7.03;66.15;103285.72;1725217;82;21145;-47
2020/12/21 03:11:45;;;;;;;23.98;16.82;;;;;;;6.93;66.62;103286.25;1725015;82;21156;-47
2020/12/21 03:14:14;;;;;;;19.13;14.83;;;;;;;6.89;67.11;103283.98;1658561;84;21413;-47
2020/12/21 03:16:42;;;;;;;17.27;14.63;;;;;;;6.88;67.45;103287.83;1668306;84;21212;-47
2020/12/21 03:19:10;;;;;;;19.20;15.43;;;;;;;7.10;67.26;103282.52;1665458;85;21169;-48
2020/12/21 03:21:39;;;;;;;19.67;14.75;;;;;;;7.16;67.09;103282.72;1664493;84;21335;-47
2020/12/21 03:24:08;;;;;;;25.20;16.40;;;;;;;7.19;66.99;103284.98;1669266;84;21200;-47
2020/12/21 03:26:36;;;;;;;19.65;15.25;;;;;;;7.05;67.44;103284.06;1661095;85;21177;-48
2020/12/21 03:29:05;;;;;;;20.62;15.55;;;;;;;6.98;67.75;103283.41;1671658;84;21165;-47
2020/12/21 03:31:34;;;;;;;19.92;15.68;;;;;;;7.15;67.41;103289.59;1662229;85;21335;-47
2020/12/21 03:34:03;;;;;;;20.75;16.00;;;;;;;7.20;67.48;103288.05;1671486;84;21633;-47
2020/12/21 03:36:31;;;;;;;21.20;17.15;;;;;;;7.24;67.47;103286.42;1670244;84;21164;-47
2020/12/21 03:38:59;;;;;;;21.90;16.80;;;;;;;7.29;67.43;103287.47;1658024;85;21304;-48
2020/12/21 03:41:27;;;;;;;21.73;16.07;;;;;;;7.32;67.33;103294.02;1658179;85;21197;-47
2020/12/21 03:43:55;;;;;;;24.37;17.05;;;;;;;7.35;67.22;103287.25;1668986;84;21306;-45
2020/12/21 03:46:23;;;;;;;21.02;16.17;;;;;;;7.40;67.16;103288.66;1667323;84;21358;-45
2020/12/21 03:48:52;;;;;;;24.77;16.82;;;;;;;7.30;67.43;103286.62;1651539;85;21667;-46
2020/12/21 03:51:20;;;;;;;24.25;17.17;;;;;;;7.24;67.75;103282.54;1669833;84;21838;-45
2020/12/21 03:53:48;;;;;;;21.77;16.70;;;;;;;7.34;67.43;103285.88;1670693;84;21228;-47
2020/12/21 03:56:16;;;;;;;22.10;16.57;;;;;;;7.55;66.66;103276.20;1664860;84;21196;-45
2020/12/21 03:58:45;;;;;;;21.97;16.37;;;;;;;7.59;66.49;103275.45;1658533;86;21232;-46
2020/12/21 04:01:13;;;;;;;24.18;17.23;;;;;;;7.57;66.55;103266.75;1646529;86;21384;-46
2020/12/21 04:03:50;;;;;;;23.73;19.57;;;;;;;7.54;66.69;103266.68;1792565;79;28306;-46
2020/12/21 04:06:19;;;;;;;22.20;16.12;;;;;;;7.29;67.62;103272.78;1787147;80;21267;-47
2020/12/21 04:08:46;;;;;;;18.50;14.75;;;;;;;7.60;66.88;103269.86;1779467;80;21168;-47
2020/12/21 04:11:16;;;;;;;18.57;14.53;;;;;;;7.66;66.60;103271.34;1720142;83;21317;-47
2020/12/21 04:13:45;;;;;;;21.27;14.98;;;;;;;7.65;66.58;103269.16;1741141;81;21198;-47
2020/12/21 04:16:13;;;;;;;18.05;14.23;;;;;;;7.64;66.58;103263.53;1741920;81;21308;-47
2020/12/21 04:18:42;;;;;;;19.80;14.13;;;;;;;7.63;66.62;103261.75;1749944;81;21610;-46
2020/12/21 04:21:13;;;;;;;20.68;15.65;;;;;;;7.59;66.59;103263.80;1706616;83;21168;-47
2020/12/21 04:23:41;;;;;;;23.20;17.70;;;;;;;7.53;66.77;103264.02;1678849;85;21333;-47
2020/12/21 04:26:10;;;;;;;25.05;15.93;;;;;;;7.50;66.93;103267.39;1712833;82;21180;-47
2020/12/21 04:28:38;;;;;;;24.43;16.75;;;;;;;7.49;67.13;103267.34;1706724;82;21228;-47
2020/12/21 04:31:07;;;;;;;20.02;14.90;;;;;;;7.46;67.22;103270.72;1713010;82;21165;-47
2020/12/21 04:33:35;;;;;;;21.55;15.53;;;;;;;7.45;67.31;103263.80;1711770;84;21281;-48
2020/12/21 04:36:12;;;;;;;23.30;16.12;;;;;;;7.45;67.07;103270.27;1713055;84;21318;-45
2020/12/21 04:38:40;;;;;;;24.77;15.25;;;;;;;7.39;67.05;103277.45;1713017;82;21168;-48
2020/12/21 04:41:09;;;;;;;21.57;15.20;;;;;;;7.34;67.11;103270.34;1712995;82;21193;-47
2020/12/21 04:43:37;;;;;;;23.02;16.77;;;;;;;7.27;67.34;103267.12;1712608;84;21175;-47
2020/12/21 04:46:08;;;;;;;25.23;17.00;;;;;;;7.24;67.50;103265.30;1713215;82;21178;-47
2020/12/21 04:48:39;;;;;;;28.62;17.42;;;;;;;7.27;67.62;103273.59;1713194;84;21145;-48
2020/12/21 04:51:08;;;;;;;24.00;16.45;;;;;;;7.27;67.44;103270.56;1713176;82;21184;-47
2020/12/21 04:53:39;;;;;;;24.43;17.90;;;;;;;7.27;67.46;103271.00;1713286;82;21169;-48
2020/12/21 04:56:08;;;;;;;19.52;15.60;;;;;;;7.24;67.65;103270.89;1712955;82;21165;-47
2020/12/21 04:58:36;;;;;;;22.80;16.40;;;;;;;7.24;67.93;103268.30;1712877;82;21295;-47
2020/12/21 05:01:06;;;;;;;26.50;16.85;;;;;;;7.29;67.79;103269.34;1753676;81;21839;-48
2020/12/21 05:03:33;;;;;;;29.05;18.30;;;;;;;7.32;67.68;103274.59;1738219;82;21212;-47
2020/12/21 05:06:07;;;;;;;23.62;16.87;;;;;;;7.34;67.63;103269.05;1725678;83;21122;-47
2020/12/21 05:08:35;;;;;;;26.12;17.25;;;;;;;7.15;68.10;103275.80;1733207;83;21315;-47
2020/12/21 05:11:05;;;;;;;21.73;16.00;;;;;;;7.13;68.26;103272.28;1733082;83;21169;-47
2020/12/21 05:13:34;;;;;;;21.82;16.15;;;;;;;7.12;68.41;103281.75;1733376;83;21154;-47
2020/12/21 05:16:03;;;;;;;21.97;15.98;;;;;;;7.34;67.79;103283.29;1732488;83;21270;-47
2020/12/21 05:18:36;;;;;;;22.70;16.60;;;;;;;7.36;67.57;103285.11;1732734;83;21209;-47
2020/12/21 05:21:07;;;;;;;31.27;17.42;;;;;;;7.37;67.40;103284.70;1738272;82;21715;-47
2020/12/21 05:23:35;;;;;;;23.77;16.32;;;;;;;7.33;67.47;103281.55;1756064;80;21197;-47
2020/12/21 05:26:10;;;;;;;26.75;17.32;;;;;;;7.29;67.57;103283.58;1756141;81;21180;-47
2020/12/21 05:28:40;;;;;;;26.07;17.77;;;;;;;7.23;67.82;103286.83;1750327;81;21141;-47
2020/12/21 05:31:10;;;;;;;23.12;17.35;;;;;;;7.19;68.03;103285.41;1755945;82;21137;-47
2020/12/21 05:33:41;;;;;;;24.30;16.42;;;;;;;7.21;68.02;103281.16;1753005;82;21149;-48
2020/12/21 05:36:11;;;;;;;;;;;;;;;7.19;68.00;103278.95;1758828;82;21145;-47
2020/12/21 05:38:40;;;;;;;23.57;17.32;;;;;;;7.15;68.02;103281.83;1755879;82;20156;-47
2020/12/21 05:41:11;;;;;;;28.57;17.15;;;;;;;7.08;68.24;103285.06;1755838;82;21141;-46
2020/12/21 05:43:43;;;;;;;23.15;16.87;;;;;;;7.03;68.49;103280.55;1756081;82;21129;-46
2020/12/21 05:46:22;;;;;;;24.40;18.05;;;;;;;7.05;68.60;103282.77;1749168;82;21160;-47
2020/12/21 05:48:57;;;;;;;23.20;16.42;;;;;;;7.04;68.60;103290.97;1755888;82;21113;-46
2020/12/21 05:51:34;;;;;;;28.70;18.25;;;;;;;7.04;68.67;103286.20;1756457;81;21140;-46
2020/12/21 05:54:05;;;;;;;24.60;17.70;;;;;;;7.03;68.66;103293.48;1728978;82;21195;-46
2020/12/21 05:56:35;;;;;;;24.30;17.32;;;;;;;7.00;68.68;103288.23;1724485;82;21176;-46
2020/12/21 05:59:03;;;;;;;24.15;17.02;;;;;;;6.96;68.86;103298.02;1722781;82;21200;-47
2020/12/21 06:01:31;;;;;;;25.23;17.02;;;;;;;6.95;69.01;103301.41;1722793;82;21192;-46
2020/12/21 06:04:01;;;;;;;24.80;16.62;;;;;;;6.96;68.96;103299.31;1739317;81;21211;-46
2020/12/21 06:06:33;;;;;;;25.48;16.65;;;;;;;6.94;68.90;103294.09;1741867;81;21168;-46
2020/12/21 06:09:04;;;;;;;25.25;17.60;;;;;;;6.94;68.96;103297.97;1737994;81;21620;-47
2020/12/21 06:11:39;;;;;;;25.05;15.95;;;;;;;6.93;69.15;103300.48;1743312;81;21198;-46
2020/12/21 06:14:15;;;;;;;24.55;16.55;;;;;;;6.95;69.24;103302.71;1736175;81;21600;-47
2020/12/21 06:16:50;;;;;;;26.30;17.35;;;;;;;7.02;69.09;103301.69;1810100;79;22857;-48
2020/12/21 06:19:24;;;;;;;24.37;16.48;;;;;;;6.98;69.04;103305.42;1776825;80;21172;-46
2020/12/21 06:21:53;;;;;;;27.25;17.48;;;;;;;6.99;69.02;103307.16;1776801;80;21283;-47
2020/12/21 06:24:23;;;;;;;23.65;15.90;;;;;;;6.99;69.10;103311.05;1777217;80;21164;-46
2020/12/21 06:26:52;;;;;;;28.05;17.62;;;;;;;6.99;69.15;103309.75;1777215;80;21148;-47
2020/12/21 06:29:25;;;;;;;24.27;16.17;;;;;;;6.98;69.24;103309.30;1773395;80;21172;-47
2020/12/21 06:32:04;;;;;;;23.87;16.95;;;;;;;7.00;69.30;103312.41;1780455;80;21564;-47
2020/12/21 06:34:38;;;;;;;24.87;15.75;;;;;;;7.05;69.22;103309.95;1780281;80;21155;-47
2020/12/21 06:37:19;;;;;;;20.55;15.53;;;;;;;7.10;69.06;103308.00;1774474;80;21179;-47
2020/12/21 06:40:03;;;;;;;20.88;14.85;;;;;;;7.11;69.00;103307.59;1775738;80;21172;-46
2020/12/21 06:42:31;;;;;;;22.50;14.73;;;;;;;7.08;68.98;103306.19;1780630;80;21176;-47
2020/12/21 06:44:59;;;;;;;24.60;14.87;;;;;;;7.06;68.94;103306.55;1777808;80;21568;-46
2020/12/21 06:47:27;;;;;;;26.33;16.55;;;;;;;7.03;68.85;103307.72;1777266;80;21175;-47
2020/12/21 06:49:56;;;;;;;22.07;14.58;;;;;;;6.99;68.79;103314.92;1777809;80;21164;-47
2020/12/21 06:52:25;;;;;;;22.30;14.55;;;;;;;6.97;69.01;103313.99;1720223;80;21145;-47
2020/12/21 06:54:53;;;;;;;21.93;14.87;;;;;;;6.97;69.18;103320.06;1777129;80;21176;-47
2020/12/21 06:57:21;;;;;;;24.37;15.30;;;;;;;6.98;69.13;103318.36;1772607;80;21163;-47
2020/12/21 06:59:59;;;;;;;24.63;15.80;;;;;;;6.99;69.06;103314.92;1779760;80;21164;-47
2020/12/21 07:02:27;;;;;;;25.65;15.40;;;;;;;7.02;69.05;103312.45;1774368;80;21108;-46
2020/12/21 07:04:56;;;;;;;21.93;15.05;;;;;;;7.05;68.85;103312.54;1777945;80;21112;-47
2020/12/21 07:07:26;;;;;;;22.50;14.90;;;;;;;7.07;68.88;103313.47;1769599;80;21144;-47
2020/12/21 07:09:54;;;;;;;24.30;16.87;;;;;;;7.11;68.78;103312.77;1778643;80;21112;-47
2020/12/21 07:12:23;;;;;;;21.97;13.93;;;;;;;7.16;68.71;103313.78;1775915;80;21172;-47
2020/12/21 07:14:51;;;;;;;21.07;14.43;;;;;;;7.23;68.53;103315.76;1778823;80;21164;-46
2020/12/21 07:17:20;;;;;;;20.60;15.23;;;;;;;7.26;68.25;103310.66;1772358;80;21286;-48
2020/12/21 07:19:49;;;;;;;21.57;14.07;;;;;;;7.31;68.10;103317.77;1762908;80;21176;-48
2020/12/21 07:22:19;;;;;;;21.73;15.15;;;;;;;7.33;67.88;103313.92;1775274;80;21157;-46
2020/12/21 07:24:47;;;;;;;20.08;14.47;;;;;;;7.35;67.84;103320.03;1768723;80;21141;-46
2020/12/21 07:27:15;;;;;;;20.88;14.58;;;;;;;7.40;67.80;103317.16;1768493;80;21156;-46
2020/12/21 07:29:44;;;;;;;22.35;14.53;;;;;;;7.44;67.37;103320.30;1768980;80;21525;-45
2020/12/21 07:32:12;;;;;;;21.17;14.33;;;;;;;7.44;67.22;103316.42;1765500;80;21334;-45
2020/12/21 07:34:40;;;;;;;21.48;14.40;;;;;;;7.44;67.07;103309.94;1738061;80;21140;-46
2020/12/21 07:37:10;;;;;;;19.77;13.53;;;;;;;7.43;67.02;103313.38;1770999;80;21759;-45
2020/12/21 07:39:38;;;;;;;20.82;14.23;;;;;;;7.42;67.15;103314.20;1768822;80;21180;-46
2020/12/21 07:42:09;;;;;;;24.35;14.70;;;;;;;7.42;67.05;103312.91;1768970;80;21211;-46
2020/12/21 07:44:37;;;;;;;21.40;13.88;;;;;;;7.40;66.96;103317.16;1770583;80;21160;-46
2020/12/21 07:47:12;;;;;;;21.45;14.07;;;;;;;7.38;66.99;103321.41;1770061;80;21307;-47
2020/12/21 07:49:40;;;;;;;23.62;14.47;;;;;;;7.37;67.21;103327.44;1652000;85;21145;-47
2020/12/21 07:52:09;;;;;;;22.67;14.85;;;;;;;7.37;67.34;103324.84;1690235;85;21161;-47
2020/12/21 07:54:44;;;;;;;21.82;14.90;;;;;;;7.38;67.29;103324.00;1690251;85;21374;-47
2020/12/21 07:57:14;;;;;;;28.62;16.02;;;;;;;7.40;67.26;103322.34;1690281;85;21253;-47
2020/12/21 07:59:55;;;;;;;21.62;15.08;;;;;;;7.38;67.05;103321.41;1690340;85;21672;-46
2020/12/21 08:02:29;;;;;;;22.50;14.75;;;;;;;7.43;67.09;103317.27;1771363;79;23112;-46
2020/12/21 08:04:58;;;;;;;27.42;16.07;;;;;;;7.37;67.10;103317.08;1739003;82;21169;-46
2020/12/21 08:07:28;;;;;;;20.97;14.47;;;;;;;7.36;67.21;103321.77;1744511;82;21156;-46
2020/12/21 08:09:56;;;;;;;25.30;15.35;;;;;;;7.35;67.11;103323.92;1744790;82;21302;-45
2020/12/21 08:12:24;;;;;;;26.00;16.05;;;;;;;7.34;67.01;103319.14;1730609;82;21704;-46
2020/12/21 08:15:00;;;;;;;23.70;14.73;;;;;;;7.32;67.07;103318.63;1696637;83;21148;-46
2020/12/21 08:17:31;;;;;;;25.10;15.98;;;;;;;7.32;67.05;103316.92;1732200;82;21152;-46
2020/12/21 08:20:05;;;;;;;22.27;15.38;;;;;;;7.31;67.02;103313.00;1744866;82;21161;-46
2020/12/21 08:22:35;;;;;;;22.67;14.75;;;;;;;7.32;67.11;103318.63;1729401;82;21608;-46
2020/12/21 08:25:06;;;;;;;22.98;14.15;;;;;;;7.28;67.14;103311.59;1742658;82;21306;-47
2020/12/21 08:27:35;;;;;;;27.90;16.05;;;;;;;7.29;67.21;103315.52;1736376;82;21157;-46
2020/12/21 08:30:17;;;;;;;25.20;16.35;;;;;;;7.29;67.08;103313.36;1738167;82;21196;-46
2020/12/21 08:32:45;;;;;;;24.47;15.63;;;;;;;7.32;67.14;103317.33;1737772;82;21349;-46
2020/12/21 08:35:14;;;;;;;23.02;14.65;;;;;;;7.35;67.12;103310.97;1736245;82;21156;-46
2020/12/21 08:37:43;;;;;;;24.20;15.55;;;;;;;7.37;67.07;103310.19;1738562;82;21165;-47
2020/12/21 08:40:15;;;;;;;24.45;14.78;;;;;;;7.42;66.98;103310.31;1734509;82;21656;-47
2020/12/21 08:42:47;;;;;;;26.85;15.83;;;;;;;7.44;66.70;103304.77;1741275;82;21668;-47
2020/12/21 08:45:20;;;;;;;28.32;15.63;;;;;;;7.44;66.46;103300.87;1738011;82;21164;-46
2020/12/21 08:47:51;;;;;;;24.77;15.93;;;;;;;7.44;66.48;103300.87;1738905;82;21184;-46
2020/12/21 08:50:20;;;;;;;24.72;15.55;;;;;;;7.46;66.23;103304.39;1747238;82;21176;-48
2020/12/21 08:52:49;;;;;;;28.23;14.68;;;;;;;7.45;66.29;103304.36;1736313;82;21188;-47
2020/12/21 08:55:17;;;;;;;21.17;13.98;;;;;;;7.46;66.24;103296.63;1742051;82;21156;-47
2020/12/21 08:57:46;;;;;;;28.80;15.68;;;;;;;7.44;65.96;103293.11;1732269;82;21164;-47
2020/12/21 09:00:15;;;;;;;27.95;15.80;;;;;;;7.42;65.84;103296.50;1744814;82;21557;-46
2020/12/21 09:02:44;;;;;;;21.45;13.35;;;;;;;7.40;66.07;103291.25;1733691;82;21113;-46
2020/12/21 09:05:12;;;;;;;25.70;14.35;;;;;;;7.44;66.00;103295.70;1749433;82;21627;-47
2020/12/21 09:07:40;;;;;;;23.27;14.07;;;;;;;7.45;65.94;103290.99;1744191;82;21188;-47
2020/12/21 09:10:08;;;;;;;21.20;13.93;;;;;;;7.45;65.58;103285.81;1731988;82;21161;-47
2020/12/21 09:12:37;;;;;;;25.17;15.35;;;;;;;7.46;65.36;103285.41;1743057;82;21155;-47
2020/12/21 09:15:06;;;;;;;21.87;14.20;;;;;;;7.42;65.34;103283.11;1735095;82;21604;-47
2020/12/21 09:17:36;;;;;;;22.98;13.18;;;;;;;7.46;65.15;103280.23;1738402;82;21328;-47
2020/12/21 09:20:06;;;;;;;19.42;12.60;;;;;;;7.46;64.94;103281.08;1739167;82;21164;-47
2020/12/21 09:22:34;;;;;;;27.73;15.95;;;;;;;7.45;64.89;103278.04;1733948;82;21319;-47
2020/12/21 09:25:03;;;;;;;24.77;14.90;;;;;;;7.45;64.83;103268.09;1741160;81;21198;-48
2020/12/21 09:27:32;;;;;;;24.90;16.17;;;;;;;7.45;64.82;103269.38;1735531;82;21156;-48
2020/12/21 09:30:00;;;;;;;26.52;15.78;;;;;;;7.47;64.89;103263.42;1738081;82;21298;-48
2020/12/21 09:32:30;;;;;;;29.18;14.78;;;;;;;7.46;64.96;103255.17;1744815;82;21286;-47
2020/12/21 09:34:58;;;;;;;22.15;15.10;;;;;;;7.48;64.83;103253.51;1738402;81;21153;-47
2020/12/21 09:37:27;;;;;;;27.30;16.15;;;;;;;7.49;64.89;103248.80;1739870;82;21298;-47
2020/12/21 09:39:57;;;;;;;25.05;15.80;;;;;;;7.50;64.95;103249.25;1740992;82;21593;-46
2020/12/21 09:42:25;;;;;;;25.80;15.85;;;;;;;7.51;64.83;103244.55;1732781;82;21156;-46
2020/12/21 09:44:56;;;;;;;25.30;14.38;;;;;;;7.51;64.72;103240.66;1743880;82;21316;-46
2020/12/21 09:47:24;;;;;;;27.32;14.63;;;;;;;7.50;64.54;103238.89;1731379;82;21120;-46
2020/12/21 09:49:53;;;;;;;20.30;13.75;;;;;;;7.51;64.64;103238.48;1741927;82;21149;-46
2020/12/21 09:52:21;;;;;;;26.55;15.32;;;;;;;7.52;64.59;103237.25;1736192;82;21281;-47
2020/12/21 09:54:49;;;;;;;25.10;16.10;;;;;;;7.52;64.62;103237.25;1737015;82;21140;-46
2020/12/21 09:57:19;;;;;;;22.87;15.72;;;;;;;7.51;64.45;103233.30;1740852;82;21153;-46
2020/12/21 09:59:47;;;;;;;21.95;14.28;;;;;;;7.53;64.50;103232.93;1734092;82;21176;-46
2020/12/21 10:02:15;;;;;;;24.02;13.78;;;;;;;7.53;64.30;103227.75;1727494;81;21165;-46
2020/12/21 10:04:43;;;;;;;23.65;14.13;;;;;;;7.53;64.25;103228.63;1718535;82;21157;-47
2020/12/21 10:07:11;;;;;;;20.50;14.68;;;;;;;7.52;64.35;103232.08;1728211;82;21262;-47
2020/12/21 10:09:40;;;;;;;21.23;13.13;;;;;;;7.53;64.35;103228.63;1725508;82;21287;-46
2020/12/21 10:12:08;;;;;;;21.62;15.05;;;;;;;7.56;64.28;103227.45;1724657;82;21632;-46
2020/12/21 10:14:37;;;;;;;26.02;14.33;;;;;;;7.58;64.30;103226.19;1724585;82;21157;-47
2020/12/21 10:17:06;;;;;;;23.52;13.48;;;;;;;7.59;64.48;103226.63;1717262;82;21149;-47
2020/12/21 10:19:34;;;;;;;19.73;13.55;;;;;;;7.64;64.42;103222.06;1726956;82;21113;-47
2020/12/21 10:22:03;;;;;;;20.25;13.00;;;;;;;7.65;64.16;103219.92;1730850;82;21292;-47
2020/12/21 10:24:31;;;;;;;21.00;13.43;;;;;;;7.67;64.02;103219.55;1722754;82;21617;-47
2020/12/21 10:26:59;;;;;;;19.82;13.10;;;;;;;7.66;63.95;103215.22;1724109;82;21295;-47
2020/12/21 10:29:27;;;;;;;22.02;12.82;;;;;;;7.67;63.89;103213.07;1727541;82;21157;-47
2020/12/21 10:31:58;;;;;;;16.10;11.75;;;;;;;7.70;64.06;103215.77;1728281;82;21141;-47
2020/12/21 10:34:26;;;;;;;15.95;10.75;;;;;;;7.77;63.79;103209.91;1684655;83;21187;-46
2020/12/21 10:36:55;;;;;;;14.83;10.40;;;;;;;7.83;63.49;103212.67;1684231;84;21340;-47
2020/12/21 10:39:23;;;;;;;18.98;11.20;;;;;;;7.89;63.30;103211.55;1683297;84;21175;-47
2020/12/21 10:41:52;;;;;;;17.55;11.30;;;;;;;7.91;62.93;103207.28;1681284;84;21234;-47
2020/12/21 10:44:20;;;;;;;15.93;10.08;;;;;;;7.92;62.85;103207.76;1681566;84;21320;-47
2020/12/21 10:46:48;;;;;;;18.23;10.93;;;;;;;7.94;62.68;103208.67;1681586;84;21166;-47
2020/12/21 10:49:16;;;;;;;17.75;11.43;;;;;;;7.91;62.44;103209.87;1681120;84;21139;-48
2020/12/21 10:51:45;;;;;;;15.53;10.82;;;;;;;7.88;62.58;103208.51;1681746;84;21255;-47
2020/12/21 10:54:13;;;;;;;15.13;10.35;;;;;;;7.89;62.63;103208.95;1683211;84;21198;-48
2020/12/21 10:56:42;;;;;;;15.48;10.90;;;;;;;7.91;62.61;103204.69;1682329;84;21804;-47
2020/12/21 10:59:10;;;;;;;14.25;9.58;;;;;;;7.89;62.76;103198.58;1682167;84;21199;-47
2020/12/21 11:01:43;;;;;;;14.90;10.60;;;;;;;7.91;62.69;103205.98;1673624;84;21191;-47
2020/12/21 11:04:11;;;;;;;12.80;9.03;;;;;;;7.92;62.56;103201.28;1672484;85;21387;-46
2020/12/21 11:06:40;;;;;;;13.65;9.40;;;;;;;7.91;62.38;103209.02;1687325;84;21408;-47
2020/12/21 11:09:08;;;;;;;14.73;9.05;;;;;;;7.87;62.42;103205.44;1688084;84;21186;-45
2020/12/21 11:11:36;;;;;;;16.62;9.28;;;;;;;7.83;62.48;103203.59;1674106;85;21232;-46
2020/12/21 11:14:04;;;;;;;13.08;8.48;;;;;;;7.82;62.60;103201.86;1684654;84;21211;-47
2020/12/21 11:16:33;;;;;;;12.60;8.33;;;;;;;7.83;62.71;103198.41;1691306;84;21162;-46
2020/12/21 11:19:01;;;;;;;13.65;8.73;;;;;;;7.82;62.63;103197.97;1688774;84;21348;-47
2020/12/21 11:21:37;;;;;;;15.20;8.90;;;;;;;7.80;62.54;103198.34;1678518;84;21681;-47
2020/12/21 11:24:06;;;;;;;13.18;8.98;;;;;;;7.74;62.52;103191.70;1685768;84;21333;-46
2020/12/21 11:26:35;;;;;;;13.93;9.33;;;;;;;7.75;62.60;103192.58;1674905;85;21323;-47